Time;durP1;ratioP1;P1;durP2;ratioP2;P2;SDS_P1;SDS_P2;PMS_P1;PMS_P2;Temp;Humidity;BMP_temperature;BMP_pressure;BME280_temperature;BME280_humidity;BME280_pressure;Samples;Min_cycle;Max_cycle;Signal;HPM_P1;HPM_P2
2022/09/11 00:01:14;;;;;;;7.47;2.97;;;;;;;12.72;100.00;96287.94;5052519;28;20907;-76
2022/09/11 00:03:43;;;;;;;5.13;2.20;;;;;;;12.64;100.00;96291.47;5014441;28;20104;-75
2022/09/11 00:06:12;;;;;;;5.63;2.17;;;;;;;12.61;100.00;96280.38;5013433;28;20032;-76
2022/09/11 00:08:40;;;;;;;5.17;2.17;;;;;;;12.73;100.00;96285.13;5014013;28;21370;-75
2022/09/11 00:11:16;;;;;;;5.37;2.10;;;;;;;12.58;100.00;96280.75;4999255;28;20086;-75
2022/09/11 00:13:43;;;;;;;4.17;2.10;;;;;;;12.62;100.00;96292.59;5032515;28;20041;-75
2022/09/11 00:16:23;;;;;;;6.97;2.10;;;;;;;12.51;100.00;96280.63;5047549;28;20032;-75
2022/09/11 00:18:50;;;;;;;4.10;2.20;;;;;;;12.56;100.00;96290.66;5053860;28;20563;-75
2022/09/11 00:21:17;;;;;;;6.90;2.57;;;;;;;12.54;100.00;96279.44;5056066;28;20497;-75
2022/09/11 00:23:43;;;;;;;7.23;2.17;;;;;;;12.59;100.00;96290.31;5053719;28;20470;-75
2022/09/11 00:26:09;;;;;;;4.40;2.33;;;;;;;12.58;100.00;96284.22;5055940;28;20068;-75
2022/09/11 00:28:35;;;;;;;4.83;2.30;;;;;;;12.59;100.00;96283.22;5053836;28;20062;-75
2022/09/11 00:31:06;;;;;;;7.13;2.63;;;;;;;12.60;100.00;96273.47;5051289;28;20039;-75
2022/09/11 00:33:33;;;;;;;5.63;2.03;;;;;;;12.59;100.00;96279.75;5053226;28;20113;-75
2022/09/11 00:36:02;;;;;;;6.23;2.40;;;;;;;12.60;100.00;96274.28;5051530;28;20446;-75
2022/09/11 00:38:30;;;;;;;4.77;2.30;;;;;;;12.58;100.00;96275.47;5057253;28;20494;-75
2022/09/11 00:40:58;;;;;;;6.43;3.53;;;;;;;12.59;100.00;96277.13;5052230;28;20044;-75
2022/09/11 00:43:26;;;;;;;6.30;2.27;;;;;;;12.59;100.00;96277.13;5050878;28;20033;-73
2022/09/11 00:45:58;;;;;;;3.67;2.00;;;;;;;12.60;100.00;96274.28;5038203;28;20110;-73
2022/09/11 00:48:30;;;;;;;3.93;2.00;;;;;;;12.61;100.00;96269.84;5038742;28;20032;-73
2022/09/11 00:50:58;;;;;;;5.27;2.40;;;;;;;12.66;100.00;96264.88;5037621;28;20043;-74
2022/09/11 00:53:29;;;;;;;6.03;3.10;;;;;;;12.64;100.00;96267.72;5037399;28;20154;-74
2022/09/11 00:55:59;;;;;;;5.27;2.57;;;;;;;12.61;100.00;96259.28;5050599;28;20028;-74
2022/09/11 00:58:29;;;;;;;5.63;2.50;;;;;;;12.61;100.00;96256.66;5039779;28;20036;-74
2022/09/11 01:00:55;;;;;;;5.90;2.70;;;;;;;12.62;100.00;96250.41;5021257;28;20074;-74
2022/09/11 01:03:24;;;;;;;7.17;2.67;;;;;;;12.56;100.00;96246.63;5035462;28;20036;-75
2022/09/11 01:05:51;;;;;;;5.33;3.67;;;;;;;12.59;100.00;96240.19;5043201;28;20047;-74
2022/09/11 01:08:17;;;;;;;3.90;2.33;;;;;;;12.61;100.00;96249.59;5040534;28;20036;-74
2022/09/11 01:11:03;;;;;;;7.43;2.33;;;;;;;12.57;100.00;96245.63;5041564;28;20024;-74
2022/09/11 01:13:55;;;;;;;5.07;2.00;;;;;;;12.54;100.00;96245.13;5058126;28;20119;-74
2022/09/11 01:16:44;;;;;;;5.80;2.37;;;;;;;12.53;100.00;96241.69;5058085;28;21311;-74
2022/09/11 01:19:48;;;;;;;4.23;2.30;;;;;;;12.55;100.00;96247.63;5070026;28;21284;-74
2022/09/11 01:22:44;;;;;;;4.32;2.33;;;;;;;12.55;100.00;96246.81;5057865;28;20021;-74
2022/09/11 01:25:28;;;;;;;5.90;2.40;;;;;;;12.53;100.00;96246.13;5062265;28;20036;-74
2022/09/11 01:27:59;;;;;;;4.82;2.65;;;;;;;12.52;100.00;96241.88;5056076;28;20036;-74
2022/09/11 01:30:36;;;;;;;4.20;2.40;;;;;;;12.60;100.00;96241.81;5056016;28;20502;-74
2022/09/11 01:33:29;;;;;;;4.50;2.27;;;;;;;12.55;100.00;96247.63;5060092;28;20086;-74
2022/09/11 01:36:10;;;;;;;9.30;3.90;;;;;;;12.59;100.00;96237.56;5054278;28;20029;-74
2022/09/11 01:38:55;;;;;;;4.07;2.37;;;;;;;12.57;100.00;96236.88;5055586;28;20036;-74
2022/09/11 01:41:59;;;;;;;6.30;2.73;;;;;;;12.52;100.00;96234.78;5070851;28;20397;-74
2022/09/11 01:44:59;;;;;;;3.50;2.05;;;;;;;12.50;100.00;96227.00;5054243;28;20453;-74
2022/09/11 01:47:27;;;;;;;5.83;2.53;;;;;;;12.50;100.00;96234.94;5029462;28;20046;-74
2022/09/11 01:50:03;;;;;;;6.97;2.70;;;;;;;12.54;100.00;96240.72;5020882;28;20401;-74
2022/09/11 01:52:43;;;;;;;6.10;2.17;;;;;;;12.50;100.00;96245.47;5022419;28;20029;-74
2022/09/11 01:55:15;;;;;;;6.17;2.40;;;;;;;12.49;100.00;96245.66;5009375;28;20025;-74
2022/09/11 01:57:46;;;;;;;5.20;2.40;;;;;;;12.49;100.00;96246.47;5022762;28;20044;-74
2022/09/11 02:00:14;;;;;;;4.35;2.33;;;;;;;12.45;100.00;96245.19;5020788;28;20039;-75
2022/09/11 02:03:06;;;;;;;3.73;2.30;;;;;;;12.43;100.00;96246.34;5004298;28;20036;-74
2022/09/11 02:05:46;;;;;;;6.97;3.05;;;;;;;12.48;100.00;96242.22;5022916;28;20056;-74
2022/09/11 02:08:36;;;;;;;6.20;2.80;;;;;;;12.49;100.00;96246.47;5020326;28;20449;-74
2022/09/11 02:11:07;;;;;;;5.87;2.60;;;;;;;12.47;100.00;96250.28;5021169;28;20900;-74
2022/09/11 02:13:48;;;;;;;4.90;2.70;;;;;;;12.45;100.00;96250.47;5019293;28;20079;-74
2022/09/11 02:16:41;;;;;;;4.37;2.47;;;;;;;12.50;100.00;96248.13;5036314;28;20458;-74
2022/09/11 02:19:13;;;;;;;4.70;2.30;;;;;;;12.47;100.00;96253.75;5057686;28;20554;-74
2022/09/11 02:21:39;;;;;;;6.17;2.97;;;;;;;12.50;100.00;96242.03;5062777;28;20066;-74
2022/09/11 02:24:08;;;;;;;6.00;2.37;;;;;;;12.42;100.00;96242.88;5038720;28;20426;-74
2022/09/11 02:26:39;;;;;;;6.73;2.70;;;;;;;12.49;100.00;96246.47;5054223;28;20085;-73
2022/09/11 02:29:06;;;;;;;7.77;2.60;;;;;;;12.55;100.00;96254.72;5058191;28;20021;-74
2022/09/11 02:31:35;;;;;;;8.30;3.03;;;;;;;12.53;100.00;96251.41;5065905;28;20106;-73
2022/09/11 02:34:01;;;;;;;11.83;3.03;;;;;;;12.52;100.00;96250.59;5047455;28;20119;-73
2022/09/11 02:36:34;;;;;;;5.13;2.63;;;;;;;12.55;100.00;96250.25;5044869;28;20020;-73
2022/09/11 02:39:19;;;;;;;;;;;;;;;12.55;100.00;96246.81;5030865;28;20032;-74
2022/09/11 02:42:16;;;;;;;5.40;3.10;;;;;;;12.52;100.00;96247.16;5064482;28;19912;-74
2022/09/11 02:45:05;;;;;;;4.83;2.80;;;;;;;12.55;100.00;96249.44;5030540;28;20074;-74
2022/09/11 02:47:55;;;;;;;5.20;3.10;;;;;;;12.64;100.00;96254.53;5027047;28;20033;-74
2022/09/11 02:50:28;;;;;;;6.07;2.93;;;;;;;12.64;100.00;96246.59;5046478;28;20113;-74
2022/09/11 02:53:03;;;;;;;6.78;3.50;;;;;;;12.66;100.00;96257.78;5046514;28;20032;-73
2022/09/11 02:55:59;;;;;;;6.87;3.20;;;;;;;12.62;100.00;96250.41;5046738;28;20767;-74
2022/09/11 02:58:38;;;;;;;10.33;4.13;;;;;;;12.61;100.00;96254.00;5028288;28;20290;-74
2022/09/11 03:01:07;;;;;;;7.70;3.50;;;;;;;12.58;100.00;96252.56;5049151;28;20146;-74
2022/09/11 03:03:44;;;;;;;8.43;3.63;;;;;;;12.68;100.00;96255.00;5055027;28;20036;-74
2022/09/11 03:06:14;;;;;;;7.60;3.93;;;;;;;12.61;100.00;96254.00;5066484;28;20440;-74
2022/09/11 03:08:40;;;;;;;7.23;3.50;;;;;;;12.65;100.00;96253.50;5067094;28;20055;-74
2022/09/11 03:11:08;;;;;;;8.33;3.50;;;;;;;12.62;100.00;96260.94;5042616;28;20488;-74
2022/09/11 03:13:35;;;;;;;11.37;3.80;;;;;;;12.60;100.00;96257.66;5046291;28;20055;-74
2022/09/11 03:16:03;;;;;;;5.27;3.13;;;;;;;12.64;100.00;96258.94;5057051;28;20028;-74
2022/09/11 03:18:30;;;;;;;8.97;3.73;;;;;;;12.64;100.00;96258.94;5059131;28;20028;-74
2022/09/11 03:20:56;;;;;;;6.93;4.47;;;;;;;12.69;100.00;96262.72;5058379;28;20031;-74
2022/09/11 03:23:24;;;;;;;6.83;3.70;;;;;;;12.67;100.00;96264.69;5060145;28;20017;-74
2022/09/11 03:25:51;;;;;;;6.60;4.10;;;;;;;12.68;100.00;96262.91;5059924;28;20085;-74
2022/09/11 03:28:17;;;;;;;10.87;4.40;;;;;;;12.68;100.00;96265.56;5060961;28;20928;-74
2022/09/11 03:30:42;;;;;;;8.43;3.80;;;;;;;12.68;100.00;96265.56;5038839;28;20411;-74
2022/09/11 03:33:09;;;;;;;8.60;4.07;;;;;;;12.74;100.00;96259.56;5075677;28;20090;-74
2022/09/11 03:35:35;;;;;;;9.03;4.10;;;;;;;12.76;100.00;96254.13;5044065;28;20067;-74
2022/09/11 03:38:01;;;;;;;8.50;4.20;;;;;;;12.71;100.00;96254.66;5039692;28;20060;-74
2022/09/11 03:40:27;;;;;;;10.37;5.30;;;;;;;12.73;100.00;96253.47;5062882;28;20108;-74
2022/09/11 03:42:53;;;;;;;10.13;5.93;;;;;;;12.70;100.00;96253.00;5076599;28;20397;-74
2022/09/11 03:45:20;;;;;;;8.10;5.83;;;;;;;12.74;100.00;96254.28;5066088;28;20036;-74
2022/09/11 03:47:46;;;;;;;11.20;6.77;;;;;;;12.73;100.00;96255.28;5056881;28;20032;-77
2022/09/11 03:50:12;;;;;;;9.00;6.27;;;;;;;12.74;100.00;96267.47;5048435;28;20129;-73
2022/09/11 03:52:38;;;;;;;9.77;6.50;;;;;;;12.72;100.00;96258.94;5047022;28;20098;-74
2022/09/11 03:55:05;;;;;;;9.80;6.63;;;;;;;12.72;100.00;96265.03;5045938;28;20044;-74
2022/09/11 03:57:33;;;;;;;11.90;6.73;;;;;;;12.69;100.00;96273.28;5032115;28;20079;-76
2022/09/11 04:00:00;;;;;;;8.77;5.93;;;;;;;12.70;100.00;96274.09;5047289;28;20036;-76
2022/09/11 04:02:32;;;;;;;11.63;6.10;;;;;;;12.73;100.00;96271.13;5049547;28;20044;-76
2022/09/11 04:05:02;;;;;;;10.47;6.77;;;;;;;12.74;100.00;96275.38;5049386;28;20040;-74
2022/09/11 04:07:30;;;;;;;10.17;6.80;;;;;;;12.71;100.00;96286.31;5049637;28;20040;-74
2022/09/11 04:09:58;;;;;;;9.50;7.37;;;;;;;12.78;100.00;96281.19;5046668;28;20044;-76
2022/09/11 04:12:24;;;;;;;9.30;6.33;;;;;;;12.77;100.00;96284.78;5043824;28;20036;-75
2022/09/11 04:14:50;;;;;;;11.30;8.00;;;;;;;12.77;100.00;96287.44;5049296;28;20024;-74
2022/09/11 04:17:17;;;;;;;11.60;7.77;;;;;;;12.78;100.00;96286.47;5057269;28;20420;-74
2022/09/11 04:19:43;;;;;;;12.43;8.93;;;;;;;12.79;100.00;96290.72;5059268;28;20024;-74
2022/09/11 04:22:09;;;;;;;11.40;9.50;;;;;;;12.80;100.00;96295.81;5041321;28;20548;-74
2022/09/11 04:24:38;;;;;;;11.47;9.43;;;;;;;12.82;100.00;96288.56;5039484;28;20086;-76
2022/09/11 04:27:04;;;;;;;13.90;10.67;;;;;;;12.86;100.00;96289.03;5056089;28;20047;-77
2022/09/11 04:29:31;;;;;;;13.23;10.83;;;;;;;12.87;100.00;96301.25;5044003;28;20024;-75
2022/09/11 04:31:58;;;;;;;13.40;10.43;;;;;;;12.89;100.00;96300.09;5055435;28;20102;-77
2022/09/11 04:34:28;;;;;;;13.93;10.37;;;;;;;12.94;100.00;96303.03;5054038;28;21400;-76
2022/09/11 04:36:55;;;;;;;12.93;9.87;;;;;;;12.91;100.00;96308.66;5056838;28;20121;-77
2022/09/11 04:39:22;;;;;;;12.53;9.10;;;;;;;12.93;100.00;96301.38;5054882;28;20369;-74
2022/09/11 04:41:48;;;;;;;10.90;8.97;;;;;;;12.95;100.00;96309.13;5054426;28;20059;-74
2022/09/11 04:44:19;;;;;;;10.43;9.20;;;;;;;12.95;100.00;96309.97;5053573;28;20080;-76
2022/09/11 04:46:45;;;;;;;15.33;9.90;;;;;;;13.01;100.00;96312.88;5054128;28;20025;-75
2022/09/11 04:49:11;;;;;;;12.83;8.60;;;;;;;12.97;100.00;96318.50;5058005;28;20032;-74
2022/09/11 04:51:40;;;;;;;14.17;9.97;;;;;;;12.95;100.00;96322.34;5041165;28;20090;-75
2022/09/11 04:54:14;;;;;;;13.00;10.00;;;;;;;12.98;100.00;96320.19;5062628;28;20032;-74
2022/09/11 04:56:40;;;;;;;12.20;10.40;;;;;;;12.97;100.00;96322.97;5066180;28;20103;-74
2022/09/11 04:59:15;;;;;;;13.03;10.80;;;;;;;13.01;100.00;96320.81;5067609;28;20021;-74
2022/09/11 05:01:45;;;;;;;11.17;8.93;;;;;;;12.98;100.00;96325.44;5053981;28;20032;-74
2022/09/11 05:04:14;;;;;;;14.53;11.03;;;;;;;13.06;100.00;96331.69;5060611;28;20028;-74
2022/09/11 05:06:44;;;;;;;13.30;10.73;;;;;;;13.03;100.00;96326.75;5064427;28;20029;-74
2022/09/11 05:09:16;;;;;;;14.97;11.13;;;;;;;13.05;100.00;96333.50;5062183;28;20040;-74
2022/09/11 05:11:44;;;;;;;13.03;11.30;;;;;;;13.01;100.00;96334.84;5064595;28;20119;-74
2022/09/11 05:14:11;;;;;;;13.80;11.80;;;;;;;13.03;100.00;96338.13;5066216;28;20123;-74
2022/09/11 05:16:39;;;;;;;14.70;12.10;;;;;;;13.05;100.00;96335.34;5068795;28;20025;-74
2022/09/11 05:19:05;;;;;;;15.43;11.93;;;;;;;13.04;100.00;96337.13;5059621;28;20036;-74
2022/09/11 05:21:33;;;;;;;16.67;11.87;;;;;;;13.02;100.00;96344.41;5061218;28;20090;-74
2022/09/11 05:24:01;;;;;;;16.80;12.27;;;;;;;12.98;100.00;96341.28;5076496;28;20684;-74
2022/09/11 05:26:30;;;;;;;14.77;12.53;;;;;;;13.02;100.00;96356.78;5074426;28;20036;-74
2022/09/11 05:28:58;;;;;;;16.13;12.03;;;;;;;13.05;100.00;96359.09;5064432;28;20067;-74
2022/09/11 05:31:24;;;;;;;15.17;11.97;;;;;;;13.06;100.00;96355.44;5064951;28;20032;-74
2022/09/11 05:33:52;;;;;;;15.63;12.60;;;;;;;13.03;100.00;96361.06;5045228;28;20055;-74
2022/09/11 05:36:17;;;;;;;14.70;12.57;;;;;;;13.03;100.00;96374.25;5052299;28;20386;-75
2022/09/11 05:38:44;;;;;;;16.77;13.57;;;;;;;13.08;100.00;96366.66;5057548;28;20040;-76
2022/09/11 05:41:13;;;;;;;15.13;12.90;;;;;;;13.07;100.00;96371.09;5059840;28;20033;-75
2022/09/11 05:43:41;;;;;;;15.23;11.83;;;;;;;13.06;100.00;96377.38;5041525;28;20094;-75
2022/09/11 05:46:10;;;;;;;16.20;13.70;;;;;;;13.07;100.00;96381.66;5057264;28;20028;-75
2022/09/11 05:48:37;;;;;;;17.33;14.30;;;;;;;13.13;100.00;96382.81;5053396;28;20039;-78
2022/09/11 05:51:17;;;;;;;17.33;14.20;;;;;;;13.07;100.00;96386.94;5052120;28;20120;-75
2022/09/11 05:53:44;;;;;;;17.50;14.53;;;;;;;13.10;100.00;96393.72;5037767;28;20036;-75
2022/09/11 05:56:15;;;;;;;15.27;13.77;;;;;;;13.14;100.00;96392.38;5052656;28;20028;-75
2022/09/11 05:58:42;;;;;;;17.00;15.20;;;;;;;13.13;100.00;96388.91;5056290;28;20024;-74
2022/09/11 06:01:18;;;;;;;19.50;15.20;;;;;;;13.20;100.00;96394.31;5057600;28;20028;-74
2022/09/11 06:03:49;;;;;;;16.37;14.63;;;;;;;13.20;100.00;96403.06;5042696;28;20039;-76
2022/09/11 06:06:20;;;;;;;18.83;15.07;;;;;;;13.27;100.00;96397.13;5042166;28;20036;-74
2022/09/11 06:08:51;;;;;;;16.20;14.40;;;;;;;13.25;100.00;96407.88;5059290;28;21100;-78
2022/09/11 06:11:19;;;;;;;17.40;14.43;;;;;;;13.27;100.00;96400.59;5041413;28;20024;-74
2022/09/11 06:13:46;;;;;;;15.47;13.87;;;;;;;13.25;100.00;96405.25;5061411;28;20056;-74
2022/09/11 06:16:15;;;;;;;18.47;14.67;;;;;;;13.25;100.00;96405.25;5052529;28;20040;-75
2022/09/11 06:18:41;;;;;;;15.40;13.83;;;;;;;13.28;100.00;96419.91;5066537;28;20128;-74
2022/09/11 06:21:12;;;;;;;18.90;15.60;;;;;;;13.28;100.00;96426.03;5049381;28;20060;-74
2022/09/11 06:23:49;;;;;;;15.23;13.63;;;;;;;13.30;100.00;96417.94;5065091;28;20124;-74
2022/09/11 06:26:24;;;;;;;20.33;15.48;;;;;;;13.32;100.00;96432.63;5046771;28;20494;-73
2022/09/11 06:28:50;;;;;;;17.53;15.43;;;;;;;13.29;100.00;96429.50;5061770;28;20036;-73
2022/09/11 06:31:18;;;;;;;17.75;15.48;;;;;;;13.32;100.00;96429.16;5036054;28;20225;-74
2022/09/11 06:33:46;;;;;;;19.40;16.53;;;;;;;13.35;100.00;96429.63;5051961;28;20409;-75
2022/09/11 06:36:18;;;;;;;17.80;15.37;;;;;;;13.39;100.00;96438.84;5068519;28;20040;-76
2022/09/11 06:38:45;;;;;;;26.65;18.83;;;;;;;13.39;100.00;96436.22;5069782;28;20056;-75
2022/09/11 06:41:15;;;;;;;18.33;16.43;;;;;;;13.48;100.00;96436.16;5053882;28;20036;-75
2022/09/11 06:43:42;;;;;;;18.83;16.83;;;;;;;13.57;100.00;96429.84;5056539;28;20032;-75
2022/09/11 06:46:13;;;;;;;18.20;16.10;;;;;;;13.60;100.00;96430.31;5050865;28;20025;-75
2022/09/11 06:48:40;;;;;;;19.70;16.20;;;;;;;13.73;100.00;96435.06;5055199;28;20035;-75
2022/09/11 06:51:10;;;;;;;17.57;15.10;;;;;;;13.75;100.00;96437.50;5064815;28;20143;-76
2022/09/11 06:53:39;;;;;;;16.58;14.88;;;;;;;13.85;100.00;96438.13;5059918;28;20075;-75
2022/09/11 06:56:14;;;;;;;16.27;14.57;;;;;;;13.86;100.00;96432.66;5058510;28;20157;-75
2022/09/11 06:58:44;;;;;;;16.00;14.30;;;;;;;13.89;100.00;96437.59;5060567;28;20032;-74
2022/09/11 07:01:12;;;;;;;15.60;13.93;;;;;;;13.89;100.00;96442.88;5062826;28;20542;-74
2022/09/11 07:03:49;;;;;;;15.20;13.15;;;;;;;13.94;100.00;96442.34;5060632;28;20054;-74
2022/09/11 07:06:21;;;;;;;15.02;13.43;;;;;;;13.99;100.00;96441.84;5058718;28;20581;-76
2022/09/11 07:08:53;;;;;;;15.88;13.18;;;;;;;14.05;100.00;96438.47;5053404;28;20039;-75
2022/09/11 07:11:19;;;;;;;14.45;12.98;;;;;;;14.10;100.00;96442.25;5052002;28;20029;-74
2022/09/11 07:13:46;;;;;;;14.52;12.95;;;;;;;14.24;100.00;96432.72;5039241;28;20036;-78
2022/09/11 07:16:13;;;;;;;15.05;13.48;;;;;;;14.27;100.00;96436.84;5069860;28;20058;-76
2022/09/11 07:18:43;;;;;;;16.27;13.75;;;;;;;14.34;100.00;96435.13;5063186;28;20059;-75
2022/09/11 07:21:20;;;;;;;14.95;13.00;;;;;;;14.30;100.00;96444.44;5053279;28;20130;-75
2022/09/11 07:23:53;;;;;;;14.70;13.10;;;;;;;14.44;100.00;96445.47;5065633;28;20040;-77
2022/09/11 07:26:22;;;;;;;13.90;12.43;;;;;;;14.39;100.00;96440.72;5066073;28;20028;-75
2022/09/11 07:28:51;;;;;;;18.40;12.32;;;;;;;14.41;100.00;96445.81;5051421;28;20381;-75
2022/09/11 07:31:23;;;;;;;15.98;12.25;;;;;;;14.46;100.00;96454.06;5049478;28;20135;-76
2022/09/11 07:33:51;;;;;;;12.95;11.60;;;;;;;14.33;100.00;96455.47;5055938;28;20036;-75
2022/09/11 07:36:22;;;;;;;14.23;11.80;;;;;;;14.52;100.00;96461.31;5052684;28;20527;-76
2022/09/11 07:38:53;;;;;;;13.85;12.27;;;;;;;14.47;100.00;96461.00;5067061;28;20060;-76
2022/09/11 07:41:21;;;;;;;14.73;11.80;;;;;;;14.45;100.00;96460.34;5063740;28;20439;-75
2022/09/11 07:43:57;;;;;;;13.15;11.70;;;;;;;14.54;100.00;96462.78;5052787;28;20055;-76
2022/09/11 07:46:25;;;;;;;11.03;9.23;;;;;;;14.57;100.00;96466.91;4991673;28;21054;-73
2022/09/11 07:48:54;;;;;;;13.07;11.63;;;;;;;14.67;100.00;96474.59;4984468;28;20462;-76
2022/09/11 07:51:20;;;;;;;13.05;11.52;;;;;;;14.66;100.00;96475.59;5019839;28;20123;-78
2022/09/11 07:53:49;;;;;;;13.23;10.85;;;;;;;14.74;100.00;96473.69;5033653;28;20119;-76
2022/09/11 07:56:22;;;;;;;12.65;10.88;;;;;;;14.85;100.00;96480.38;5017819;28;20033;-74
2022/09/11 07:58:51;;;;;;;14.15;11.68;;;;;;;14.78;100.00;96476.81;5024927;28;20029;-76
2022/09/11 08:01:23;;;;;;;13.77;10.27;;;;;;;14.99;100.00;96476.09;5027965;28;20047;-74
2022/09/11 08:03:55;;;;;;;12.38;10.75;;;;;;;14.92;100.00;96470.69;5008372;28;20041;-77
2022/09/11 08:06:22;;;;;;;13.00;11.38;;;;;;;14.88;100.00;96481.84;5006391;28;20043;-78
2022/09/11 08:08:55;;;;;;;12.00;9.15;;;;;;;14.80;100.00;96478.28;5002785;28;20043;-74
2022/09/11 08:11:23;;;;;;;13.35;10.38;;;;;;;14.88;100.00;96477.38;5021755;28;20037;-78
2022/09/11 08:13:51;;;;;;;10.70;9.60;;;;;;;14.89;100.00;96483.47;5056053;28;20040;-77
2022/09/11 08:16:22;;;;;;;11.90;10.50;;;;;;;14.84;100.00;96476.91;5066349;28;20085;-78
2022/09/11 08:18:50;;;;;;;11.25;9.00;;;;;;;14.93;100.00;96485.59;5054372;28;20039;-72
2022/09/11 08:21:17;;;;;;;12.63;10.63;;;;;;;14.85;100.00;96483.88;5078944;28;20023;-74
2022/09/11 08:23:44;;;;;;;13.68;9.15;;;;;;;15.02;100.00;96489.84;5054620;28;20044;-74
2022/09/11 08:26:17;;;;;;;11.07;8.93;;;;;;;15.08;100.00;96498.88;5068584;28;20093;-76
2022/09/11 08:28:44;;;;;;;9.80;8.80;;;;;;;15.01;100.00;96497.94;5074816;28;20393;-78
2022/09/11 08:31:11;;;;;;;11.82;8.98;;;;;;;14.99;100.00;96495.50;5075916;28;20466;-77
2022/09/11 08:33:38;;;;;;;11.15;7.88;;;;;;;15.03;100.00;96495.94;5054513;28;20032;-75
2022/09/11 08:36:08;;;;;;;11.75;8.57;;;;;;;15.11;100.00;96495.84;5053613;28;20064;-77
2022/09/11 08:38:36;;;;;;;11.68;10.45;;;;;;;15.23;100.00;96497.06;5054457;28;20689;-79
2022/09/11 08:41:35;;;;;;;17.25;14.05;;;;;;;15.48;100.00;96499.44;5075213;28;20038;-72
2022/09/11 08:44:08;;;;;;;9.93;8.38;;;;;;;15.67;100.00;96498.91;5069515;28;20041;-77
2022/09/11 08:46:38;;;;;;;8.77;7.63;;;;;;;15.61;100.00;96496.97;5061748;28;20025;-72
2022/09/11 08:49:13;;;;;;;8.75;7.43;;;;;;;15.81;100.00;96493.78;5069926;28;20039;-75
2022/09/11 08:51:40;;;;;;;10.23;7.20;;;;;;;15.70;100.00;96497.72;5059755;28;20068;-78
2022/09/11 08:54:20;;;;;;;9.60;8.02;;;;;;;15.90;100.00;96503.28;5076444;28;20075;-77
2022/09/11 08:56:49;;;;;;;9.93;7.35;;;;;;;15.98;100.00;96501.31;5058748;28;20052;-72
2022/09/11 08:59:30;;;;;;;7.72;6.82;;;;;;;15.76;100.00;96511.06;5071347;28;20086;-76
2022/09/11 09:02:05;;;;;;;9.02;7.00;;;;;;;15.69;100.00;96504.00;5075039;28;20036;-72
2022/09/11 09:04:53;;;;;;;8.68;6.65;;;;;;;15.73;100.00;96506.13;5071504;28;20036;-77
2022/09/11 09:07:41;;;;;;;16.95;11.10;;;;;;;15.92;100.00;96506.53;5072488;28;20040;-75
2022/09/11 09:10:47;;;;;;;17.33;12.50;;;;;;;15.83;100.00;96510.31;5087832;28;20028;-74
2022/09/11 09:13:32;;;;;;;8.93;6.93;;;;;;;15.98;100.00;96513.75;5069636;28;20058;-73
2022/09/11 09:16:16;;;;;;;9.45;8.18;;;;;;;15.91;100.00;96511.03;5048918;28;20041;-74
2022/09/11 09:18:51;;;;;;;12.00;6.95;;;;;;;15.82;100.00;96513.97;5073999;28;20033;-77
2022/09/11 09:21:27;;;;;;;9.10;7.18;;;;;;;15.85;100.00;96513.59;5066138;28;20390;-76
2022/09/11 09:23:55;;;;;;;8.75;7.03;;;;;;;15.99;100.00;96515.41;5065320;28;20063;-72
2022/09/11 09:26:27;;;;;;;9.98;7.03;;;;;;;16.14;100.00;96512.72;5070000;28;20024;-76
2022/09/11 09:28:58;;;;;;;9.13;6.53;;;;;;;16.22;100.00;96513.41;5068797;28;20489;-76
2022/09/11 09:31:29;;;;;;;8.45;6.28;;;;;;;16.18;100.00;96514.00;5052780;28;20093;-76
2022/09/11 09:34:02;;;;;;;8.05;6.47;;;;;;;16.17;100.00;96515.84;5068404;28;20041;-78
2022/09/11 09:36:45;;;;;;;8.43;6.15;;;;;;;16.01;100.00;96508.09;5072943;28;20032;-76
2022/09/11 09:39:17;;;;;;;9.23;5.93;;;;;;;16.45;100.00;96504.47;5057382;28;20137;-78
2022/09/11 09:42:01;;;;;;;8.20;5.97;;;;;;;16.56;100.00;96511.09;5054410;28;20126;-77
2022/09/11 09:44:49;;;;;;;7.95;6.00;;;;;;;16.26;100.00;96514.72;5067732;28;20479;-74
2022/09/11 09:47:15;;;;;;;8.70;5.90;;;;;;;16.51;100.00;96506.38;5068761;28;20047;-74
2022/09/11 09:49:42;;;;;;;6.70;4.93;;;;;;;16.46;100.00;96516.72;5071921;28;20036;-76
2022/09/11 09:52:23;;;;;;;8.02;5.95;;;;;;;16.48;100.00;96514.72;5071262;28;20111;-79
2022/09/11 09:55:01;;;;;;;7.15;4.88;;;;;;;16.64;100.00;96503.84;5049493;28;20056;-79
2022/09/11 09:57:38;;;;;;;7.88;5.50;;;;;;;16.79;100.00;96510.94;5071705;28;20032;-77
2022/09/11 10:00:14;;;;;;;7.03;5.25;;;;;;;16.85;100.00;96508.34;5069350;28;20029;-79
2022/09/11 10:02:53;;;;;;;9.07;5.20;;;;;;;16.88;100.00;96507.16;5071052;28;20098;-77
2022/09/11 10:05:19;;;;;;;8.20;6.07;;;;;;;17.05;100.00;96508.50;5071229;28;20040;-78
2022/09/11 10:07:49;;;;;;;7.63;4.72;;;;;;;17.23;100.00;96507.19;5070747;28;20036;-74
2022/09/11 10:10:41;;;;;;;7.57;5.45;;;;;;;17.40;100.00;96501.41;5069422;28;20037;-77
2022/09/11 10:13:19;;;;;;;5.97;4.82;;;;;;;18.98;100.00;96483.47;5066722;28;20417;-78
2022/09/11 10:15:49;;;;;;;8.48;4.88;;;;;;;19.33;100.00;96485.88;5077854;28;20044;-79
2022/09/11 10:18:23;;;;;;;8.43;4.70;;;;;;;20.13;100.00;96488.31;5078027;28;20139;-80
2022/09/11 10:20:48;;;;;;;5.75;4.10;;;;;;;21.04;100.00;96481.75;5074473;28;20055;-76
2022/09/11 10:23:26;;;;;;;6.97;3.65;;;;;;;20.30;100.00;96485.97;5076549;28;20048;-76
2022/09/11 10:25:53;;;;;;;7.00;3.90;;;;;;;19.39;100.00;96490.38;5059369;28;20028;-78
2022/09/11 10:28:30;;;;;;;4.63;3.45;;;;;;;20.33;100.00;96493.53;5072758;28;20035;-77
2022/09/11 10:31:02;;;;;;;4.78;3.22;;;;;;;21.51;100.00;96482.97;5056912;28;20131;-79
2022/09/11 10:33:37;;;;;;;4.25;3.20;;;;;;;21.46;100.00;96484.66;5072656;28;20040;-76
2022/09/11 10:36:07;;;;;;;5.22;3.08;;;;;;;21.35;100.00;96476.34;5054450;28;20033;-79
2022/09/11 10:38:32;;;;;;;5.05;3.70;;;;;;;21.61;100.00;96477.94;5057719;28;20502;-75
2022/09/11 10:41:20;;;;;;;4.53;2.75;;;;;;;21.99;100.00;96473.38;5072305;28;20040;-76
2022/09/11 10:43:51;;;;;;;5.15;2.78;;;;;;;22.08;100.00;96477.38;5071631;28;20055;-75
2022/09/11 10:46:16;;;;;;;4.28;2.50;;;;;;;22.60;100.00;96475.00;5067044;28;20079;-73
2022/09/11 10:48:42;;;;;;;7.40;3.10;;;;;;;21.43;100.00;96475.25;5072882;28;20041;-78
2022/09/11 10:51:12;;;;;;;10.77;8.05;;;;;;;21.13;100.00;96478.59;5047867;28;20690;-74
2022/09/11 10:54:27;;;;;;;5.28;2.80;;;;;;;20.65;100.00;96489.03;5051211;28;20032;-77
2022/09/11 10:57:19;;;;;;;5.53;2.55;;;;;;;20.91;100.00;96477.34;5065698;28;20524;-78
2022/09/11 11:00:09;;;;;;;3.22;2.25;;;;;;;20.37;100.00;96482.22;5060956;28;20051;-77
2022/09/11 11:02:39;;;;;;;8.55;6.70;;;;;;;20.05;100.00;96489.34;5067162;28;20033;-77
2022/09/11 11:05:18;;;;;;;12.48;8.57;;;;;;;19.43;100.00;96488.13;5049785;28;20157;-72
2022/09/11 11:08:18;;;;;;;4.97;3.33;;;;;;;19.06;100.00;96490.41;5042289;28;20082;-76
2022/09/11 11:10:54;;;;;;;4.57;2.63;;;;;;;19.04;100.00;96484.47;5065243;28;20070;-75
2022/09/11 11:13:50;;;;;;;4.80;3.33;;;;;;;20.75;100.00;96473.34;5071768;28;20101;-75
2022/09/11 11:16:50;;;;;;;5.53;2.67;;;;;;;21.68;100.00;96472.50;5064716;28;20112;-75
2022/09/11 11:19:50;;;;;;;3.35;2.30;;;;;;;22.84;100.00;96470.53;5058152;28;20553;-75
2022/09/11 11:22:35;;;;;;;6.07;3.20;;;;;;;22.54;100.00;96470.59;5057613;28;20094;-75
2022/09/11 11:25:33;;;;;;;5.85;2.63;;;;;;;22.06;100.00;96479.44;5059966;28;20039;-75
2022/09/11 11:28:41;;;;;;;5.45;3.30;;;;;;;21.38;100.00;96473.22;5061954;28;20166;-75
2022/09/11 11:31:34;;;;;;;3.50;2.17;;;;;;;21.10;100.00;96473.69;5053361;28;20049;-75
2022/09/11 11:34:32;;;;;;;2.72;1.77;;;;;;;20.37;100.00;96481.38;5064564;28;20633;-76
2022/09/11 11:37:20;;;;;;;5.57;2.72;;;;;;;19.54;100.00;96490.94;5050206;28;20370;-76
2022/09/11 11:40:01;;;;;;;5.22;2.85;;;;;;;19.69;100.00;96489.94;5040531;28;20093;-76
2022/09/11 11:42:36;;;;;;;3.95;2.67;;;;;;;19.07;100.00;96497.38;5052555;28;20036;-76
2022/09/11 11:45:20;;;;;;;3.85;2.28;;;;;;;18.97;100.00;96497.78;5044095;28;20071;-75
2022/09/11 11:47:50;;;;;;;6.20;4.18;;;;;;;18.86;100.00;96500.25;5064001;28;20032;-73